sensor_id;sensor_type;location;lat;lon;timestamp;pressure;altitude;pressure_sealevel;temperature;humidity
16100;BME280;8154;50.830;12.082;2022-11-11T00:03:45;100802.19;;;21.94;41.37
16100;BME280;8154;50.830;12.082;2022-11-11T00:06:29;100810.00;;;21.96;41.31
16100;BME280;8154;50.830;12.082;2022-11-11T00:09:13;100809.16;;;21.95;41.34
16100;BME280;8154;50.830;12.082;2022-11-11T00:11:57;100815.78;;;21.91;41.44
16100;BME280;8154;50.830;12.082;2022-11-11T00:14:41;100813.97;;;21.92;41.37
16100;BME280;8154;50.830;12.082;2022-11-11T00:17:25;100812.09;;;21.84;41.64
16100;BME280;8154;50.830;12.082;2022-11-11T00:20:28;100818.75;;;21.88;41.52
16100;BME280;8154;50.830;12.082;2022-11-11T00:23:32;100824.31;;;21.95;41.49
16100;BME280;8154;50.830;12.082;2022-11-11T00:26:35;100827.78;;;21.95;41.40
16100;BME280;8154;50.830;12.082;2022-11-11T00:29:19;100833.72;;;21.89;41.53
16100;BME280;8154;50.830;12.082;2022-11-11T00:32:05;100831.06;;;21.89;41.52
16100;BME280;8154;50.830;12.082;2022-11-11T00:35:09;100822.94;;;21.91;41.56
16100;BME280;8154;50.830;12.082;2022-11-11T00:38:13;100827.78;;;21.95;41.42
16100;BME280;8154;50.830;12.082;2022-11-11T00:41:21;100826.13;;;21.94;41.55
16100;BME280;8154;50.830;12.082;2022-11-11T00:44:06;100828.41;;;21.89;41.47
16100;BME280;8154;50.830;12.082;2022-11-11T00:46:50;100838.09;;;21.90;41.49
16100;BME280;8154;50.830;12.082;2022-11-11T00:49:53;100846.06;;;21.90;41.57
16100;BME280;8154;50.830;12.082;2022-11-11T00:52:57;100834.72;;;21.88;41.65
16100;BME280;8154;50.830;12.082;2022-11-11T00:55:41;100829.25;;;21.90;41.48
16100;BME280;8154;50.830;12.082;2022-11-11T00:58:25;100829.81;;;21.93;41.41
16100;BME280;8154;50.830;12.082;2022-11-11T01:01:11;100834.28;;;21.93;41.49
16100;BME280;8154;50.830;12.082;2022-11-11T01:03:56;100844.06;;;21.92;41.49
16100;BME280;8154;50.830;12.082;2022-11-11T01:06:40;100842.41;;;21.91;41.48
16100;BME280;8154;50.830;12.082;2022-11-11T01:09:25;100854.06;;;21.90;41.62
16100;BME280;8154;50.830;12.082;2022-11-11T01:12:09;100841.41;;;21.92;41.53
16100;BME280;8154;50.830;12.082;2022-11-11T01:14:53;100844.78;;;21.94;41.40
16100;BME280;8154;50.830;12.082;2022-11-11T01:17:37;100844.47;;;21.97;41.38
16100;BME280;8154;50.830;12.082;2022-11-11T01:20:21;100839.44;;;21.94;41.38
16100;BME280;8154;50.830;12.082;2022-11-11T01:23:06;100837.09;;;21.91;41.54
16100;BME280;8154;50.830;12.082;2022-11-11T01:25:51;100831.22;;;21.88;41.60
16100;BME280;8154;50.830;12.082;2022-11-11T01:28:35;100829.94;;;21.92;41.47
16100;BME280;8154;50.830;12.082;2022-11-11T01:31:21;100814.78;;;21.92;41.57
16100;BME280;8154;50.830;12.082;2022-11-11T01:34:06;100815.88;;;21.99;41.24
16100;BME280;8154;50.830;12.082;2022-11-11T01:36:50;100819.81;;;21.95;41.38
16100;BME280;8154;50.830;12.082;2022-11-11T01:39:34;100817.75;;;21.89;41.54
16100;BME280;8154;50.830;12.082;2022-11-11T01:42:18;100824.78;;;21.90;41.58
16100;BME280;8154;50.830;12.082;2022-11-11T01:48:41;100833.28;;;21.94;41.43
16100;BME280;8154;50.830;12.082;2022-11-11T01:55:12;100830.25;;;21.89;41.40
16100;BME280;8154;50.830;12.082;2022-11-11T01:58:02;100830.56;;;21.86;41.69
16100;BME280;8154;50.830;12.082;2022-11-11T02:00:48;100827.75;;;21.87;41.56
16100;BME280;8154;50.830;12.082;2022-11-11T02:03:38;100824.78;;;21.90;41.43
16100;BME280;8154;50.830;12.082;2022-11-11T02:06:23;100825.44;;;21.92;41.58
16100;BME280;8154;50.830;12.082;2022-11-11T02:09:08;100829.94;;;21.92;41.43
16100;BME280;8154;50.830;12.082;2022-11-11T02:11:55;100828.09;;;21.92;41.59
16100;BME280;8154;50.830;12.082;2022-11-11T02:14:59;100833.44;;;21.92;41.51
16100;BME280;8154;50.830;12.082;2022-11-11T02:17:46;100822.13;;;21.90;41.56
16100;BME280;8154;50.830;12.082;2022-11-11T02:20:37;100821.44;;;21.88;41.57
16100;BME280;8154;50.830;12.082;2022-11-11T02:23:50;100816.78;;;21.90;41.58
16100;BME280;8154;50.830;12.082;2022-11-11T02:26:36;100818.31;;;21.93;41.48
16100;BME280;8154;50.830;12.082;2022-11-11T02:29:22;100818.16;;;21.94;41.40
16100;BME280;8154;50.830;12.082;2022-11-11T02:32:07;100815.19;;;21.97;41.32
16100;BME280;8154;50.830;12.082;2022-11-11T02:34:52;100817.47;;;21.92;41.52
16100;BME280;8154;50.830;12.082;2022-11-11T02:37:36;100816.50;;;21.93;41.43
16100;BME280;8154;50.830;12.082;2022-11-11T02:40:37;100815.63;;;21.93;41.55
16100;BME280;8154;50.830;12.082;2022-11-11T02:43:42;100820.34;;;21.99;41.39
16100;BME280;8154;50.830;12.082;2022-11-11T02:46:26;100819.50;;;21.98;41.38
16100;BME280;8154;50.830;12.082;2022-11-11T02:49:10;100818.69;;;21.98;41.37
16100;BME280;8154;50.830;12.082;2022-11-11T02:51:55;100818.31;;;21.93;41.49
16100;BME280;8154;50.830;12.082;2022-11-11T02:54:39;100824.63;;;21.92;41.54
16100;BME280;8154;50.830;12.082;2022-11-11T02:57:25;100840.59;;;21.92;41.48
16100;BME280;8154;50.830;12.082;2022-11-11T03:00:10;100833.44;;;21.92;41.40
16100;BME280;8154;50.830;12.082;2022-11-11T03:02:54;100831.78;;;21.91;41.52
16100;BME280;8154;50.830;12.082;2022-11-11T03:05:38;100834.81;;;21.96;41.50
16100;BME280;8154;50.830;12.082;2022-11-11T03:08:22;100835.13;;;21.93;41.44
16100;BME280;8154;50.830;12.082;2022-11-11T03:11:06;100836.25;;;21.91;41.65
16100;BME280;8154;50.830;12.082;2022-11-11T03:13:50;100844.38;;;21.89;41.68
16100;BME280;8154;50.830;12.082;2022-11-11T03:16:34;100839.91;;;21.90;41.73
16100;BME280;8154;50.830;12.082;2022-11-11T03:19:37;100838.09;;;21.90;41.69
16100;BME280;8154;50.830;12.082;2022-11-11T03:22:21;100851.41;;;21.90;41.94
16100;BME280;8154;50.830;12.082;2022-11-11T03:25:06;100849.41;;;21.92;41.62
16100;BME280;8154;50.830;12.082;2022-11-11T03:28:10;100849.41;;;21.92;41.59
16100;BME280;8154;50.830;12.082;2022-11-11T03:30:55;100851.25;;;21.92;41.66
16100;BME280;8154;50.830;12.082;2022-11-11T03:33:39;100849.03;;;21.87;41.69
16100;BME280;8154;50.830;12.082;2022-11-11T03:36:23;100857.69;;;21.89;41.67
16100;BME280;8154;50.830;12.082;2022-11-11T03:39:27;100845.78;;;21.93;41.54
16100;BME280;8154;50.830;12.082;2022-11-11T03:42:12;100857.09;;;21.95;41.45
16100;BME280;8154;50.830;12.082;2022-11-11T03:44:56;100866.75;;;21.96;41.55
16100;BME280;8154;50.830;12.082;2022-11-11T03:47:40;100867.22;;;21.92;41.59
16100;BME280;8154;50.830;12.082;2022-11-11T03:50:24;100862.72;;;21.92;41.70
16100;BME280;8154;50.830;12.082;2022-11-11T03:53:09;100862.72;;;21.92;41.57
16100;BME280;8154;50.830;12.082;2022-11-11T03:55:54;100866.22;;;21.93;41.55
16100;BME280;8154;50.830;12.082;2022-11-11T03:58:38;100872.75;;;21.98;41.51
16100;BME280;8154;50.830;12.082;2022-11-11T04:01:22;100870.25;;;21.97;41.72
16100;BME280;8154;50.830;12.082;2022-11-11T04:04:25;100870.53;;;21.94;41.57
16100;BME280;8154;50.830;12.082;2022-11-11T04:07:28;100867.53;;;21.89;41.75
16100;BME280;8154;50.830;12.082;2022-11-11T04:10:31;100865.38;;;21.92;41.50
16100;BME280;8154;50.830;12.082;2022-11-11T04:13:15;100868.56;;;21.96;41.57
16100;BME280;8154;50.830;12.082;2022-11-11T04:16:19;100870.53;;;21.94;41.52
16100;BME280;8154;50.830;12.082;2022-11-11T04:19:03;100864.72;;;21.90;41.56
16100;BME280;8154;50.830;12.082;2022-11-11T04:22:06;100867.22;;;21.92;41.51
16100;BME280;8154;50.830;12.082;2022-11-11T04:24:51;100873.81;;;21.88;41.73
16100;BME280;8154;50.830;12.082;2022-11-11T04:27:57;100877.16;;;21.90;41.67
16100;BME280;8154;50.830;12.082;2022-11-11T04:31:01;100876.88;;;21.93;41.58
16100;BME280;8154;50.830;12.082;2022-11-11T04:33:46;100886.38;;;21.95;41.54
16100;BME280;8154;50.830;12.082;2022-11-11T04:36:30;100884.69;;;21.94;41.59
16100;BME280;8154;50.830;12.082;2022-11-11T04:39:14;100891.03;;;21.93;41.59
16100;BME280;8154;50.830;12.082;2022-11-11T04:42:17;100884.63;;;21.86;41.80
16100;BME280;8154;50.830;12.082;2022-11-11T04:45:03;100886.31;;;21.87;41.68
16100;BME280;8154;50.830;12.082;2022-11-11T04:48:08;100885.69;;;21.93;41.57
16100;BME280;8154;50.830;12.082;2022-11-11T04:50:53;100876.41;;;21.97;41.49
16100;BME280;8154;50.830;12.082;2022-11-11T04:53:37;100875.06;;;21.93;41.54
16100;BME280;8154;50.830;12.082;2022-11-11T04:56:21;100870.69;;;21.92;41.51
16100;BME280;8154;50.830;12.082;2022-11-11T04:59:25;100877.16;;;21.90;41.53
16100;BME280;8154;50.830;12.082;2022-11-11T05:02:09;100868.66;;;21.86;41.74
16100;BME280;8154;50.830;12.082;2022-11-11T05:05:12;100870.63;;;21.84;41.84
16100;BME280;8154;50.830;12.082;2022-11-11T05:07:56;100869.44;;;21.96;41.64
16100;BME280;8154;50.830;12.082;2022-11-11T05:11:01;100873.34;;;21.92;41.69
16100;BME280;8154;50.830;12.082;2022-11-11T05:13:46;100859.53;;;21.89;41.62
16100;BME280;8154;50.830;12.082;2022-11-11T05:17:08;100855.03;;;21.89;41.67
16100;BME280;8154;50.830;12.082;2022-11-11T05:20:11;100852.38;;;21.89;41.65
16100;BME280;8154;50.830;12.082;2022-11-11T05:23:14;100837.78;;;21.93;41.55
16100;BME280;8154;50.830;12.082;2022-11-11T05:25:58;100833.59;;;21.91;41.56
16100;BME280;8154;50.830;12.082;2022-11-11T05:28:42;100842.72;;;21.88;41.46
16100;BME280;8154;50.830;12.082;2022-11-11T05:31:27;100841.72;;;21.89;41.59
16100;BME280;8154;50.830;12.082;2022-11-11T05:34:12;100840.38;;;21.85;41.67
16100;BME280;8154;50.830;12.082;2022-11-11T05:36:56;100848.34;;;21.85;41.71
16100;BME280;8154;50.830;12.082;2022-11-11T05:39:40;100846.53;;;21.86;41.75
16100;BME280;8154;50.830;12.082;2022-11-11T05:42:25;100845.06;;;21.91;41.55
16100;BME280;8154;50.830;12.082;2022-11-11T05:45:09;100853.75;;;21.93;41.47
16100;BME280;8154;50.830;12.082;2022-11-11T05:47:54;100850.09;;;21.94;41.50
16100;BME280;8154;50.830;12.082;2022-11-11T05:50:38;100866.38;;;21.91;41.51
16100;BME280;8154;50.830;12.082;2022-11-11T05:53:25;100859.16;;;21.84;41.69
16100;BME280;8154;50.830;12.082;2022-11-11T05:56:09;100871.59;;;21.83;41.65
16100;BME280;8154;50.830;12.082;2022-11-11T05:58:53;100873.81;;;21.88;41.73
16100;BME280;8154;50.830;12.082;2022-11-11T06:01:37;100873.00;;;21.87;41.61
16100;BME280;8154;50.830;12.082;2022-11-11T06:04:22;100882.66;;;21.88;41.62
16100;BME280;8154;50.830;12.082;2022-11-11T06:07:06;100877.94;;;21.82;41.69
16100;BME280;8154;50.830;12.082;2022-11-11T06:09:50;100888.56;;;21.82;41.98
16100;BME280;8154;50.830;12.082;2022-11-11T06:12:41;100892.91;;;21.83;41.83
16100;BME280;8154;50.830;12.082;2022-11-11T06:15:45;100881.28;;;21.84;41.81
16100;BME280;8154;50.830;12.082;2022-11-11T06:18:29;100878.31;;;21.87;41.72
16100;BME280;8154;50.830;12.082;2022-11-11T06:21:14;100872.00;;;21.88;41.73
16100;BME280;8154;50.830;12.082;2022-11-11T06:23:58;100880.69;;;21.90;41.66
16100;BME280;8154;50.830;12.082;2022-11-11T06:26:42;100879.13;;;21.88;41.82
16100;BME280;8154;50.830;12.082;2022-11-11T06:29:26;100871.16;;;21.88;41.75
16100;BME280;8154;50.830;12.082;2022-11-11T06:32:10;100876.31;;;21.89;41.70
16100;BME280;8154;50.830;12.082;2022-11-11T06:34:54;100868.03;;;21.92;41.52
16100;BME280;8154;50.830;12.082;2022-11-11T06:37:38;100865.53;;;21.91;41.57
16100;BME280;8154;50.830;12.082;2022-11-11T06:40:23;100864.00;;;21.88;41.62
16100;BME280;8154;50.830;12.082;2022-11-11T06:43:07;100863.31;;;21.86;41.73
16100;BME280;8154;50.830;12.082;2022-11-11T06:45:53;100877.31;;;21.88;41.65
16100;BME280;8154;50.830;12.082;2022-11-11T06:48:37;100881.78;;;21.88;41.74
16100;BME280;8154;50.830;12.082;2022-11-11T06:51:25;100878.16;;;21.89;41.79
16100;BME280;8154;50.830;12.082;2022-11-11T06:54:10;100878.69;;;21.92;41.65
16100;BME280;8154;50.830;12.082;2022-11-11T06:56:53;100873.34;;;21.92;41.61
16100;BME280;8154;50.830;12.082;2022-11-11T06:59:38;100873.00;;;21.87;41.66
16100;BME280;8154;50.830;12.082;2022-11-11T07:02:22;100876.47;;;21.88;41.75
16100;BME280;8154;50.830;12.082;2022-11-11T07:05:07;100875.13;;;21.84;41.82
16100;BME280;8154;50.830;12.082;2022-11-11T07:07:51;100872.84;;;21.89;41.68
16100;BME280;8154;50.830;12.082;2022-11-11T07:10:37;100887.13;;;21.88;41.71
16100;BME280;8154;50.830;12.082;2022-11-11T07:13:22;100887.97;;;21.88;41.59
16100;BME280;8154;50.830;12.082;2022-11-11T07:16:07;100886.88;;;21.81;41.78
16100;BME280;8154;50.830;12.082;2022-11-11T07:18:51;100888.56;;;21.82;41.89
16100;BME280;8154;50.830;12.082;2022-11-11T07:21:35;100891.94;;;21.84;41.89
16100;BME280;8154;50.830;12.082;2022-11-11T07:24:19;100891.09;;;21.84;41.81
16100;BME280;8154;50.830;12.082;2022-11-11T07:27:03;100884.63;;;21.86;41.85
16100;BME280;8154;50.830;12.082;2022-11-11T07:29:47;100890.63;;;21.88;41.78
16100;BME280;8154;50.830;12.082;2022-11-11T07:32:32;100888.66;;;21.90;41.66
16100;BME280;8154;50.830;12.082;2022-11-11T07:35:17;100889.94;;;21.86;41.78
16100;BME280;8154;50.830;12.082;2022-11-11T07:38:01;100892.44;;;21.88;41.82
16100;BME280;8154;50.830;12.082;2022-11-11T07:40:46;100896.25;;;21.85;41.72
16100;BME280;8154;50.830;12.082;2022-11-11T07:43:30;100893.19;;;21.80;41.90
16100;BME280;8154;50.830;12.082;2022-11-11T07:46:14;100898.38;;;21.82;41.87
16100;BME280;8154;50.830;12.082;2022-11-11T07:48:58;100902.94;;;21.89;41.69
16100;BME280;8154;50.830;12.082;2022-11-11T07:51:42;100900.28;;;21.89;41.59
16100;BME280;8154;50.830;12.082;2022-11-11T07:54:26;100905.09;;;21.86;41.79
16100;BME280;8154;50.830;12.082;2022-11-11T07:57:10;100918.56;;;21.84;41.68
16100;BME280;8154;50.830;12.082;2022-11-11T07:59:55;100918.56;;;21.84;41.90
16100;BME280;8154;50.830;12.082;2022-11-11T08:02:39;100920.91;;;21.87;41.80
16100;BME280;8154;50.830;12.082;2022-11-11T08:05:23;100920.31;;;21.93;41.67
16100;BME280;8154;50.830;12.082;2022-11-11T08:08:09;100931.09;;;21.92;41.72
16100;BME280;8154;50.830;12.082;2022-11-11T08:10:54;100926.91;;;21.89;41.69
16100;BME280;8154;50.830;12.082;2022-11-11T08:13:38;100922.88;;;21.85;41.92
16100;BME280;8154;50.830;12.082;2022-11-11T08:16:26;100927.50;;;21.83;41.89
16100;BME280;8154;50.830;12.082;2022-11-11T08:19:10;100924.84;;;21.83;41.73
16100;BME280;8154;50.830;12.082;2022-11-11T08:21:54;100923.88;;;21.84;41.93
16100;BME280;8154;50.830;12.082;2022-11-11T08:24:39;100929.41;;;21.91;41.70
16100;BME280;8154;50.830;12.082;2022-11-11T08:27:23;100931.25;;;21.90;41.74
16100;BME280;8154;50.830;12.082;2022-11-11T08:30:08;100937.84;;;21.86;41.80
16100;BME280;8154;50.830;12.082;2022-11-11T08:33:00;100939.53;;;21.87;41.87
16100;BME280;8154;50.830;12.082;2022-11-11T08:35:45;100926.38;;;21.86;41.91
16100;BME280;8154;50.830;12.082;2022-11-11T08:38:29;100955.22;;;21.90;41.87
16100;BME280;8154;50.830;12.082;2022-11-11T08:41:13;100955.22;;;21.90;41.86
16100;BME280;8154;50.830;12.082;2022-11-11T08:43:58;100953.38;;;21.91;41.80
16100;BME280;8154;50.830;12.082;2022-11-11T08:46:43;100955.22;;;21.90;41.88
16100;BME280;8154;50.830;12.082;2022-11-11T08:49:27;100956.56;;;21.94;41.65
16100;BME280;8154;50.830;12.082;2022-11-11T08:52:12;100962.19;;;21.91;41.89
16100;BME280;8154;50.830;12.082;2022-11-11T08:54:56;100970.50;;;21.88;41.92
16100;BME280;8154;50.830;12.082;2022-11-11T08:57:42;100970.19;;;21.91;41.77
16100;BME280;8154;50.830;12.082;2022-11-11T09:00:27;100978.47;;;21.88;41.91
16100;BME280;8154;50.830;12.082;2022-11-11T09:03:11;100985.75;;;21.86;41.91
16100;BME280;8154;50.830;12.082;2022-11-11T09:05:56;100980.69;;;21.93;41.78
16100;BME280;8154;50.830;12.082;2022-11-11T09:08:42;100983.75;;;21.98;41.69
16100;BME280;8154;50.830;12.082;2022-11-11T09:11:26;100985.31;;;21.91;41.75
16100;BME280;8154;50.830;12.082;2022-11-11T09:14:12;100985.84;;;21.94;41.65
16100;BME280;8154;50.830;12.082;2022-11-11T09:16:56;100985.47;;;21.89;41.97
16100;BME280;8154;50.830;12.082;2022-11-11T09:19:40;100994.69;;;21.95;41.82
16100;BME280;8154;50.830;12.082;2022-11-11T09:22:24;100998.03;;;21.97;41.75
16100;BME280;8154;50.830;12.082;2022-11-11T09:25:09;100995.22;;;21.98;41.74
16100;BME280;8154;50.830;12.082;2022-11-11T09:27:58;101003.50;;;21.95;41.81
16100;BME280;8154;50.830;12.082;2022-11-11T09:30:42;101002.53;;;21.96;41.84
16100;BME280;8154;50.830;12.082;2022-11-11T09:33:27;101003.94;;;21.91;41.87
16100;BME280;8154;50.830;12.082;2022-11-11T09:36:11;101009.13;;;21.92;41.74
16100;BME280;8154;50.830;12.082;2022-11-11T09:38:55;101001.13;;;21.92;41.90
16100;BME280;8154;50.830;12.082;2022-11-11T09:45:09;101012.19;;;21.97;41.81
16100;BME280;8154;50.830;12.082;2022-11-11T09:48:12;101004.44;;;22.04;41.71
16100;BME280;8154;50.830;12.082;2022-11-11T09:51:07;101003.59;;;22.03;41.69
16100;BME280;8154;50.830;12.082;2022-11-11T09:54:05;100994.41;;;21.98;41.79
16100;BME280;8154;50.830;12.082;2022-11-11T09:56:51;101002.09;;;22.01;41.90
16100;BME280;8154;50.830;12.082;2022-11-11T09:59:44;100988.94;;;21.99;41.86
16100;BME280;8154;50.830;12.082;2022-11-11T10:02:46;100981.47;;;22.03;41.77
16100;BME280;8154;50.830;12.082;2022-11-11T10:05:38;100984.00;;;22.04;41.98
16100;BME280;8154;50.830;12.082;2022-11-11T10:08:33;100980.63;;;22.02;41.93
16100;BME280;8154;50.830;12.082;2022-11-11T10:11:25;100985.81;;;22.04;41.94
16100;BME280;8154;50.830;12.082;2022-11-11T10:14:11;100990.13;;;22.05;41.85
16100;BME280;8154;50.830;12.082;2022-11-11T10:17:18;100985.13;;;22.02;42.03
16100;BME280;8154;50.830;12.082;2022-11-11T10:20:18;100983.16;;;22.04;42.08
16100;BME280;8154;50.830;12.082;2022-11-11T10:26:01;100979.81;;;22.19;41.60
16100;BME280;8154;50.830;12.082;2022-11-11T10:28:49;100975.19;;;22.21;41.46
16100;BME280;8154;50.830;12.082;2022-11-11T10:31:35;100972.53;;;22.21;41.49
16100;BME280;8154;50.830;12.082;2022-11-11T10:34:20;100972.53;;;22.21;41.52
16100;BME280;8154;50.830;12.082;2022-11-11T10:37:17;100975.47;;;22.18;41.62
16100;BME280;8154;50.830;12.082;2022-11-11T10:42:58;100979.72;;;22.11;41.73
16100;BME280;8154;50.830;12.082;2022-11-11T10:45:57;100972.75;;;22.10;41.75
16100;BME280;8154;50.830;12.082;2022-11-11T10:48:53;100970.22;;;22.09;41.68
16100;BME280;8154;50.830;12.082;2022-11-11T10:51:54;100973.03;;;22.07;41.98
16100;BME280;8154;50.830;12.082;2022-11-11T10:54:54;100975.00;;;22.05;41.83
16100;BME280;8154;50.830;12.082;2022-11-11T10:57:49;100973.34;;;22.04;41.73
16100;BME280;8154;50.830;12.082;2022-11-11T11:00:37;100976.97;;;22.03;42.01
16100;BME280;8154;50.830;12.082;2022-11-11T11:03:26;100966.88;;;22.07;41.90
16100;BME280;8154;50.830;12.082;2022-11-11T11:06:17;100969.09;;;22.11;41.87
16100;BME280;8154;50.830;12.082;2022-11-11T11:09:26;100968.47;;;22.17;41.63
16100;BME280;8154;50.830;12.082;2022-11-11T11:12:16;100971.22;;;22.25;41.44
16100;BME280;8154;50.830;12.082;2022-11-11T11:15:09;100965.59;;;22.28;41.49
16100;BME280;8154;50.830;12.082;2022-11-11T11:21:05;100951.75;;;22.25;41.39
16100;BME280;8154;50.830;12.082;2022-11-11T11:23:50;100956.41;;;22.23;41.59
16100;BME280;8154;50.830;12.082;2022-11-11T11:26:45;100948.84;;;22.18;41.54
16100;BME280;8154;50.830;12.082;2022-11-11T11:29:36;100953.66;;;22.15;41.75
16100;BME280;8154;50.830;12.082;2022-11-11T11:32:26;100958.44;;;22.11;41.75
16100;BME280;8154;50.830;12.082;2022-11-11T11:35:32;100948.63;;;22.12;41.78
16100;BME280;8154;50.830;12.082;2022-11-11T11:38:16;100946.28;;;22.09;42.06
16100;BME280;8154;50.830;12.082;2022-11-11T11:41:02;100943.75;;;22.07;41.86
16100;BME280;8154;50.830;12.082;2022-11-11T11:43:46;100946.56;;;22.06;41.94
16100;BME280;8154;50.830;12.082;2022-11-11T11:46:50;100951.75;;;22.07;41.88
16100;BME280;8154;50.830;12.082;2022-11-11T11:49:40;100953.84;;;22.04;41.99
16100;BME280;8154;50.830;12.082;2022-11-11T11:52:53;100948.38;;;22.05;41.95
16100;BME280;8154;50.830;12.082;2022-11-11T11:55:53;100943.22;;;22.04;41.99
16100;BME280;8154;50.830;12.082;2022-11-11T11:59:21;100940.53;;;22.04;41.96
16100;BME280;8154;50.830;12.082;2022-11-11T12:08:38;100934.38;;;22.03;41.92
16100;BME280;8154;50.830;12.082;2022-11-11T12:11:31;100938.03;;;22.02;41.97
16100;BME280;8154;50.830;12.082;2022-11-11T12:17:40;100924.31;;;21.97;41.95
16100;BME280;8154;50.830;12.082;2022-11-11T12:20:50;100922.66;;;21.96;42.02
16100;BME280;8154;50.830;12.082;2022-11-11T12:30:01;100922.66;;;21.96;42.22
16100;BME280;8154;50.830;12.082;2022-11-11T12:36:43;100918.25;;;22.05;41.95
16100;BME280;8154;50.830;12.082;2022-11-11T12:45:26;100906.09;;;22.02;41.91
16100;BME280;8154;50.830;12.082;2022-11-11T12:51:46;100905.38;;;22.00;41.89
16100;BME280;8154;50.830;12.082;2022-11-11T13:00:25;100902.34;;;21.95;41.89
16100;BME280;8154;50.830;12.082;2022-11-11T13:03:24;100907.81;;;21.94;42.08
16100;BME280;8154;50.830;12.082;2022-11-11T13:15:40;100892.69;;;21.94;42.04
16100;BME280;8154;50.830;12.082;2022-11-11T13:18:39;100902.34;;;21.95;41.98
16100;BME280;8154;50.830;12.082;2022-11-11T13:21:33;100904.78;;;21.89;42.08
16100;BME280;8154;50.830;12.082;2022-11-11T13:24:21;100913.44;;;21.91;42.17
16100;BME280;8154;50.830;12.082;2022-11-11T13:27:13;100906.31;;;21.91;42.10
16100;BME280;8154;50.830;12.082;2022-11-11T13:30:16;100908.66;;;21.94;42.22
16100;BME280;8154;50.830;12.082;2022-11-11T13:33:13;100899.53;;;21.97;42.00
16100;BME280;8154;50.830;12.082;2022-11-11T13:36:01;100900.91;;;22.01;41.80
16100;BME280;8154;50.830;12.082;2022-11-11T13:38:53;100905.53;;;21.99;41.87
16100;BME280;8154;50.830;12.082;2022-11-11T13:41:41;100901.38;;;21.96;41.95
16100;BME280;8154;50.830;12.082;2022-11-11T13:44:33;100907.00;;;21.93;42.01
16100;BME280;8154;50.830;12.082;2022-11-11T13:47:22;100903.50;;;21.93;41.93
16100;BME280;8154;50.830;12.082;2022-11-11T13:50:14;100904.50;;;21.92;42.00
16100;BME280;8154;50.830;12.082;2022-11-11T13:53:11;100903.25;;;21.86;42.15
16100;BME280;8154;50.830;12.082;2022-11-11T13:56:01;100910.25;;;21.87;42.16
16100;BME280;8154;50.830;12.082;2022-11-11T13:58:46;100911.22;;;21.86;42.08
16100;BME280;8154;50.830;12.082;2022-11-11T14:01:36;100908.88;;;21.83;42.29
16100;BME280;8154;50.830;12.082;2022-11-11T14:04:21;100910.56;;;21.84;42.04
16100;BME280;8154;50.830;12.082;2022-11-11T14:07:06;100909.56;;;21.85;42.08
16100;BME280;8154;50.830;12.082;2022-11-11T14:09:58;100922.19;;;21.83;42.16
16100;BME280;8154;50.830;12.082;2022-11-11T14:12:49;100924.44;;;21.78;42.37
16100;BME280;8154;50.830;12.082;2022-11-11T14:15:34;100919.13;;;21.78;42.24
16100;BME280;8154;50.830;12.082;2022-11-11T14:21:03;100919.38;;;21.85;42.21
16100;BME280;8154;50.830;12.082;2022-11-11T14:23:52;100928.50;;;21.82;42.24
16100;BME280;8154;50.830;12.082;2022-11-11T14:26:37;100916.94;;;21.91;41.99
16100;BME280;8154;50.830;12.082;2022-11-11T14:29:27;100918.25;;;21.87;42.13
16100;BME280;8154;50.830;12.082;2022-11-11T14:50:00;100931.59;;;21.78;42.15
16100;BME280;8154;50.830;12.082;2022-11-11T14:52:45;100934.41;;;21.76;42.29
16100;BME280;8154;50.830;12.082;2022-11-11T14:55:39;100931.19;;;21.73;42.36
16100;BME280;8154;50.830;12.082;2022-11-11T14:58:29;100938.47;;;21.71;42.50
16100;BME280;8154;50.830;12.082;2022-11-11T15:01:18;100935.00;;;21.70;42.50
16100;BME280;8154;50.830;12.082;2022-11-11T15:04:03;100929.66;;;21.70;42.38
16100;BME280;8154;50.830;12.082;2022-11-11T15:06:56;100934.56;;;21.75;42.30
16100;BME280;8154;50.830;12.082;2022-11-11T15:10:07;100943.78;;;21.80;42.05
16100;BME280;8154;50.830;12.082;2022-11-11T15:22:29;100948.25;;;21.80;42.13
16100;BME280;8154;50.830;12.082;2022-11-11T15:31:13;100949.97;;;21.71;42.31
16100;BME280;8154;50.830;12.082;2022-11-11T15:36:57;100964.56;;;21.67;42.43
16100;BME280;8154;50.830;12.082;2022-11-11T15:42:42;100959.75;;;21.71;42.40
16100;BME280;8154;50.830;12.082;2022-11-11T15:45:34;100951.63;;;21.72;42.36
16100;BME280;8154;50.830;12.082;2022-11-11T15:48:26;100956.78;;;21.74;42.27
16100;BME280;8154;50.830;12.082;2022-11-11T15:54:18;100964.50;;;21.77;42.36
16100;BME280;8154;50.830;12.082;2022-11-11T15:57:24;100962.69;;;21.77;42.45
16100;BME280;8154;50.830;12.082;2022-11-11T16:00:38;100960.75;;;21.79;42.20
16100;BME280;8154;50.830;12.082;2022-11-11T16:03:32;100969.03;;;21.76;42.23
16100;BME280;8154;50.830;12.082;2022-11-11T16:06:17;100965.94;;;21.71;42.33
16100;BME280;8154;50.830;12.082;2022-11-11T16:09:02;100957.38;;;21.68;42.33
16100;BME280;8154;50.830;12.082;2022-11-11T16:11:46;100957.25;;;21.69;42.46
16100;BME280;8154;50.830;12.082;2022-11-11T16:14:38;100958.09;;;21.70;42.41
16100;BME280;8154;50.830;12.082;2022-11-11T16:17:28;100952.38;;;21.65;42.44
16100;BME280;8154;50.830;12.082;2022-11-11T16:20:14;100953.22;;;21.65;42.48
16100;BME280;8154;50.830;12.082;2022-11-11T16:23:02;100948.84;;;21.64;42.55
16100;BME280;8154;50.830;12.082;2022-11-11T16:25:49;100960.19;;;21.66;42.55
16100;BME280;8154;50.830;12.082;2022-11-11T16:28:43;100956.94;;;21.72;42.37
16100;BME280;8154;50.830;12.082;2022-11-11T16:31:37;100962.25;;;21.72;42.34
16100;BME280;8154;50.830;12.082;2022-11-11T16:37:13;100969.28;;;21.73;42.18
16100;BME280;8154;50.830;12.082;2022-11-11T16:40:26;100965.22;;;21.69;42.30